Yarrow Point, Washington
Current Conditions -  °F | °C
As of 2:53 PM on Wednesday 26 Nov 2014 (Local Time) from KBFI Reporting Station
Overcast Overcast  
Wind Chill: 61°   Ceiling: 3800
Heat Index: 61°   Visibility: 10mi
Dew Point: 52°   Wind: 7mph
Humidity: 72%   Direction: 190°S
Pressure: 30.03"   Gusts: NA
Location:  47.6186°N, 122.204°W
Report Text: KBFI 262253Z 19006KT 10SM BKN038 OVC049 16/11 A3003 RMK AO2 SLP170 T01610111
Loading
Personal Weather Stations






























Interactive Weather Map New forecast layout! Learn more

10-Day Weather Forecast

Advertisements
Track Severe Weather on mobile